Time;durP1;ratioP1;P1;durP2;ratioP2;P2;SDS_P1;SDS_P2;PMS_P1;PMS_P2;Temp;Humidity;BMP_temperature;BMP_pressure;BME280_temperature;BME280_humidity;BME280_pressure;Samples;Min_cycle;Max_cycle;Signal;HPM_P1;HPM_P2
2021/07/15 00:00:55;;;;;;;;;;;15.30;99.90;;;;;;5024513;28;21010;-62
2021/07/15 00:03:44;;;;;;;;;;;15.30;99.90;;;;;;5049340;28;20007;-63
2021/07/15 00:06:52;;;;;;;;;;;15.30;99.90;;;;;;5044835;28;19962;-62
2021/07/15 00:09:40;;;;;;;;;;;15.20;99.90;;;;;;5047034;28;20360;-65
2021/07/15 00:12:54;;;;;;;;;;;15.20;99.90;;;;;;5049852;28;19926;-62
2021/07/15 00:15:45;;;;;;;;;;;15.20;99.90;;;;;;5042247;28;19978;-63
2021/07/15 00:18:36;;;;;;;;;;;15.20;99.90;;;;;;5052055;28;19928;-62
2021/07/15 00:21:26;;;;;;;;;;;15.10;99.90;;;;;;5050171;28;19936;-63
2021/07/15 00:24:17;;;;;;;;;;;15.10;99.90;;;;;;5041395;28;19936;-62
2021/07/15 00:27:05;;;;;;;;;;;15.00;99.90;;;;;;5047454;28;19929;-63
2021/07/15 00:29:54;;;;;;;;;;;15.00;99.90;;;;;;5048153;28;20011;-62
2021/07/15 00:32:44;;;;;;;;;;;14.90;99.90;;;;;;5044148;28;19964;-63
2021/07/15 00:35:33;;;;;;;;;;;14.90;99.90;;;;;;5050828;28;19924;-62
2021/07/15 00:38:22;;;;;;;;;;;14.80;99.90;;;;;;5051161;28;19925;-62
2021/07/15 00:41:10;;;;;;;;;;;14.80;99.90;;;;;;5052478;28;19925;-63
2021/07/15 00:43:58;;;;;;;;;;;14.70;99.90;;;;;;5049961;28;19925;-63
2021/07/15 00:46:46;;;;;;;;;;;14.70;99.90;;;;;;5028723;28;20410;-63
2021/07/15 00:49:36;;;;;;;;;;;14.70;99.90;;;;;;5052021;28;19978;-63
2021/07/15 00:52:25;;;;;;;;;;;14.70;99.90;;;;;;5050343;28;19924;-63
2021/07/15 00:55:15;;;;;;;;;;;14.60;99.90;;;;;;5050450;28;19965;-64
2021/07/15 00:58:04;;;;;;;;;;;14.60;99.90;;;;;;5052061;28;19932;-63
2021/07/15 01:00:53;;;;;;;;;;;14.60;99.90;;;;;;5045234;28;19983;-63
2021/07/15 01:03:42;;;;;;;;;;;14.60;99.90;;;;;;5037245;28;19924;-63
2021/07/15 01:06:32;;;;;;;;;;;14.50;99.90;;;;;;5052518;28;19935;-63
2021/07/15 01:09:45;;;;;;;;;;;14.50;99.90;;;;;;5052225;28;19925;-63
2021/07/15 01:12:40;;;;;;;;;;;14.50;99.90;;;;;;5051707;28;20437;-63
2021/07/15 01:15:31;;;;;;;;;;;14.50;99.90;;;;;;5046449;28;19932;-64
2021/07/15 01:18:27;;;;;;;;;;;14.50;99.90;;;;;;5047283;28;19932;-63
2021/07/15 01:21:25;;;;;;;;;;;14.40;99.90;;;;;;5053107;28;19929;-63
2021/07/15 01:24:30;;;;;;;;;;;14.40;99.90;;;;;;5050850;28;20381;-63
2021/07/15 01:27:30;;;;;;;;;;;14.40;99.90;;;;;;5050660;28;20388;-63
2021/07/15 01:30:20;;;;;;;;;;;14.50;99.90;;;;;;5034970;28;19932;-62
2021/07/15 01:33:15;;;;;;;;;;;14.40;99.90;;;;;;5052825;28;19932;-63
2021/07/15 01:36:30;;;;;;;;;;;14.40;99.90;;;;;;5032298;28;19931;-63
2021/07/15 01:39:20;;;;;;;;;;;14.30;99.90;;;;;;5032142;28;20400;-63
2021/07/15 01:42:14;;;;;;;;;;;14.30;99.90;;;;;;5033059;28;19925;-63
2021/07/15 01:45:03;;;;;;;;;;;14.30;99.90;;;;;;5041464;28;19925;-63
2021/07/15 01:47:53;;;;;;;;;;;14.20;99.90;;;;;;5037702;28;19944;-62
2021/07/15 01:50:42;;;;;;;;;;;14.20;99.90;;;;;;5034671;28;19925;-63
2021/07/15 01:53:31;;;;;;;;;;;14.20;99.90;;;;;;5035523;28;19926;-63
2021/07/15 01:56:20;;;;;;;;;;;14.20;99.90;;;;;;5040954;28;19956;-63
2021/07/15 01:59:11;;;;;;;;;;;14.20;99.90;;;;;;5038681;28;19929;-62
2021/07/15 02:02:01;;;;;;;;;;;14.10;99.90;;;;;;5025783;28;19932;-63
2021/07/15 02:04:52;;;;;;;;;;;14.10;99.90;;;;;;5035344;28;20400;-66
2021/07/15 02:07:41;;;;;;;;;;;14.30;99.90;;;;;;5034071;28;20048;-63
2021/07/15 02:10:30;;;;;;;;;;;14.30;99.90;;;;;;5032939;28;19925;-65
2021/07/15 02:13:19;;;;;;;;;;;14.30;99.90;;;;;;5034642;28;19980;-63
2021/07/15 02:16:10;;;;;;;;;;;14.40;99.90;;;;;;5028357;28;19925;-63
2021/07/15 02:18:59;;;;;;;;;;;14.40;99.90;;;;;;5035111;28;20385;-63
2021/07/15 02:21:50;;;;;;;;;;;14.40;99.90;;;;;;5034995;28;19933;-62
2021/07/15 02:24:40;;;;;;;;;;;14.40;99.90;;;;;;5034447;28;20285;-62
2021/07/15 02:27:29;;;;;;;;;;;14.40;99.90;;;;;;5034595;28;20000;-66
2021/07/15 02:30:18;;;;;;;;;;;14.40;99.90;;;;;;5029327;28;19925;-62
2021/07/15 02:33:09;;;;;;;;;;;14.40;99.90;;;;;;5033213;28;20023;-63
2021/07/15 02:36:00;;;;;;;;;;;14.40;99.90;;;;;;5016349;28;19925;-63
2021/07/15 02:38:52;;;;;;;;;;;14.50;99.90;;;;;;5022190;28;19995;-63
2021/07/15 02:41:40;;;;;;;;;;;14.50;99.90;;;;;;5016274;28;19926;-63
2021/07/15 02:44:29;;;;;;;;;;;14.50;99.90;;;;;;5018203;28;20444;-63
2021/07/15 02:47:17;;;;;;;;;;;14.50;99.90;;;;;;5009804;28;19929;-63
2021/07/15 02:50:06;;;;;;;;;;;14.50;99.90;;;;;;5016611;28;19925;-63
2021/07/15 02:52:55;;;;;;;;;;;14.60;99.90;;;;;;5016787;28;20007;-63
2021/07/15 02:55:49;;;;;;;;;;;14.60;99.90;;;;;;5016860;28;19932;-62
2021/07/15 02:58:41;;;;;;;;;;;14.70;99.90;;;;;;5018920;28;20422;-63
2021/07/15 03:01:30;;;;;;;;;;;14.70;99.90;;;;;;5012462;28;19974;-63
2021/07/15 03:04:25;;;;;;;;;;;14.70;99.90;;;;;;5015613;28;19925;-62
2021/07/15 03:07:15;;;;;;;;;;;14.80;99.90;;;;;;5017793;28;20076;-62
2021/07/15 03:10:04;;;;;;;;;;;14.80;99.90;;;;;;5016831;28;19926;-64
2021/07/15 03:16:08;;;;;;;;;;;14.80;99.90;;;;;;5007877;28;19933;-63
2021/07/15 03:18:57;;;;;;;;;;;14.80;99.90;;;;;;5018860;28;20500;-63
2021/07/15 03:21:46;;;;;;;;;;;14.70;99.90;;;;;;5017646;28;19932;-63
2021/07/15 03:24:46;;;;;;;;;;;14.80;99.90;;;;;;5024207;28;19925;-63
2021/07/15 03:27:35;;;;;;;;;;;14.80;99.90;;;;;;5005772;28;19932;-62
2021/07/15 03:30:27;;;;;;;;;;;14.80;99.90;;;;;;5007217;28;19930;-62
2021/07/15 03:33:16;;;;;;;;;;;14.90;99.90;;;;;;5017631;28;20028;-62
2021/07/15 03:36:05;;;;;;;;;;;14.90;99.90;;;;;;5050237;28;20033;-63
2021/07/15 03:38:54;;;;;;;;;;;14.80;99.90;;;;;;5049524;28;20063;-63
2021/07/15 03:41:43;;;;;;;;;;;14.80;99.90;;;;;;5032972;28;19924;-63
2021/07/15 03:44:31;;;;;;;;;;;14.80;99.90;;;;;;5052144;28;19956;-62
2021/07/15 03:47:22;;;;;;;;;;;14.70;99.90;;;;;;5044774;28;19932;-63
2021/07/15 03:50:12;;;;;;;;;;;14.70;99.90;;;;;;5052601;28;19925;-63
2021/07/15 03:53:01;;;;;;;;;;;14.70;99.90;;;;;;5053782;28;19952;-63
2021/07/15 03:55:50;;;;;;;;;;;14.70;99.90;;;;;;5053809;28;19928;-64
2021/07/15 03:58:39;;;;;;;;;;;14.60;99.90;;;;;;5051243;28;20404;-65
2021/07/15 04:01:28;;;;;;;;;;;14.60;99.90;;;;;;5046216;28;19932;-63
2021/07/15 04:04:18;;;;;;;;;;;14.60;99.90;;;;;;5050529;28;19980;-62
2021/07/15 04:07:08;;;;;;;;;;;14.70;99.90;;;;;;5049662;28;19932;-65
2021/07/15 04:09:57;;;;;;;;;;;14.60;99.90;;;;;;5050945;28;19925;-63
2021/07/15 04:12:47;;;;;;;;;;;14.70;99.90;;;;;;5052837;28;19932;-62
2021/07/15 04:16:10;;;;;;;;;;;14.70;99.90;;;;;;5046088;28;19925;-63
2021/07/15 04:19:02;;;;;;;;;;;14.90;99.90;;;;;;5050430;28;19984;-62
2021/07/15 04:21:54;;;;;;;;;;;14.90;99.90;;;;;;5052155;28;20292;-62
2021/07/15 04:24:44;;;;;;;;;;;14.80;99.90;;;;;;5052934;28;20450;-62
2021/07/15 04:27:34;;;;;;;;;;;14.80;99.90;;;;;;5053123;28;20415;-65
2021/07/15 04:30:22;;;;;;;;;;;14.80;99.90;;;;;;5046526;28;19960;-63
2021/07/15 04:33:11;;;;;;;;;;;14.80;99.90;;;;;;5053729;28;20383;-63
2021/07/15 04:36:00;;;;;;;;;;;14.80;99.90;;;;;;5051945;28;20018;-63
2021/07/15 04:38:50;;;;;;;;;;;14.70;99.90;;;;;;5052763;28;19925;-63
2021/07/15 04:41:39;;;;;;;;;;;14.70;99.90;;;;;;5066650;28;19925;-63
2021/07/15 04:44:29;;;;;;;;;;;14.70;99.90;;;;;;5052259;28;19964;-64
2021/07/15 04:47:20;;;;;;;;;;;14.70;99.90;;;;;;5035984;28;20008;-63
2021/07/15 04:50:13;;;;;;;;;;;14.80;99.90;;;;;;5052687;28;19933;-63
2021/07/15 04:53:02;;;;;;;;;;;14.80;99.90;;;;;;5051295;28;20020;-63
2021/07/15 04:55:54;;;;;;;;;;;14.80;99.90;;;;;;5047518;28;19940;-62
2021/07/15 04:58:43;;;;;;;;;;;14.90;99.90;;;;;;5047886;28;19929;-63
2021/07/15 05:01:32;;;;;;;;;;;15.00;99.90;;;;;;5045671;28;19929;-62
2021/07/15 05:04:21;;;;;;;;;;;15.00;99.90;;;;;;5051741;28;19932;-62
2021/07/15 05:07:09;;;;;;;;;;;15.10;99.90;;;;;;5064223;28;19933;-63
2021/07/15 05:09:58;;;;;;;;;;;15.10;99.90;;;;;;5071491;28;19925;-63
2021/07/15 05:12:48;;;;;;;;;;;15.10;99.90;;;;;;5065077;28;20373;-63
2021/07/15 05:15:36;;;;;;;;;;;15.10;99.90;;;;;;5050357;28;19967;-63
2021/07/15 05:18:24;;;;;;;;;;;15.20;99.90;;;;;;5070812;28;19972;-64
2021/07/15 05:21:13;;;;;;;;;;;15.20;99.90;;;;;;5070585;28;19964;-63
2021/07/15 05:24:01;;;;;;;;;;;15.20;99.90;;;;;;5057806;28;19925;-64
2021/07/15 05:26:50;;;;;;;;;;;15.20;99.90;;;;;;5069898;28;19923;-63
2021/07/15 05:29:39;;;;;;;;;;;15.30;99.90;;;;;;5072442;28;19925;-64
2021/07/15 05:32:28;;;;;;;;;;;15.40;99.90;;;;;;5055263;28;20019;-66
2021/07/15 05:35:16;;;;;;;;;;;15.50;99.90;;;;;;5054125;28;20307;-62
2021/07/15 05:38:05;;;;;;;;;;;15.60;99.90;;;;;;5046982;28;19932;-63
2021/07/15 05:40:53;;;;;;;;;;;15.70;99.90;;;;;;5054586;28;20019;-62
2021/07/15 05:43:42;;;;;;;;;;;15.90;99.90;;;;;;5053727;28;19951;-63
2021/07/15 05:46:31;;;;;;;;;;;16.00;99.90;;;;;;5046661;28;19929;-63
2021/07/15 05:49:20;;;;;;;;;;;16.30;99.90;;;;;;5049289;28;19935;-62
2021/07/15 05:52:09;;;;;;;;;;;16.40;99.90;;;;;;5053112;28;19931;-63
2021/07/15 05:54:58;;;;;;;;;;;16.50;99.90;;;;;;5053964;28;19928;-63
2021/07/15 05:57:46;;;;;;;;;;;16.60;99.90;;;;;;5047247;28;20312;-63
2021/07/15 06:00:35;;;;;;;;;;;16.70;99.90;;;;;;5042143;28;19960;-63
2021/07/15 06:03:25;;;;;;;;;;;16.80;99.90;;;;;;5051888;28;20372;-63
2021/07/15 06:06:13;;;;;;;;;;;16.90;99.90;;;;;;5052522;28;19924;-62
2021/07/15 06:09:02;;;;;;;;;;;17.10;99.90;;;;;;5036899;28;19928;-63
2021/07/15 06:11:50;;;;;;;;;;;17.30;99.90;;;;;;5046468;28;19955;-62
2021/07/15 06:14:39;;;;;;;;;;;17.00;99.90;;;;;;5043484;28;19948;-63
2021/07/15 06:17:27;;;;;;;;;;;17.10;99.90;;;;;;5040178;28;20087;-64
2021/07/15 06:20:17;;;;;;;;;;;17.30;99.90;;;;;;5036136;28;20312;-62
2021/07/15 06:23:06;;;;;;;;;;;17.10;99.90;;;;;;5053021;28;20059;-66
2021/07/15 06:25:54;;;;;;;;;;;17.20;99.90;;;;;;5052668;28;20015;-63
2021/07/15 06:28:42;;;;;;;;;;;17.10;99.90;;;;;;5051288;28;19925;-63
2021/07/15 06:31:31;;;;;;;;;;;17.00;99.90;;;;;;5046356;28;20319;-63
2021/07/15 06:34:20;;;;;;;;;;;16.90;99.90;;;;;;5046908;28;19936;-63
2021/07/15 06:37:10;;;;;;;;;;;17.00;99.90;;;;;;5056649;28;20277;-63
2021/07/15 06:40:23;;;;;;;;;;;17.00;99.90;;;;;;5055515;28;19929;-63
2021/07/15 06:43:11;;;;;;;;;;;17.60;99.90;;;;;;5055266;28;19925;-63
2021/07/15 06:46:03;;;;;;;;;;;17.90;99.90;;;;;;5041512;28;20377;-62
2021/07/15 06:48:51;;;;;;;;;;;18.80;99.90;;;;;;5056088;28;19964;-63
2021/07/15 06:51:39;;;;;;;;;;;19.20;99.90;;;;;;5055500;28;19925;-62
2021/07/15 06:54:30;;;;;;;;;;;19.80;99.90;;;;;;5042405;28;19928;-62
2021/07/15 06:57:19;;;;;;;;;;;19.50;99.90;;;;;;5055377;28;19940;-63
2021/07/15 07:00:09;;;;;;;;;;;19.20;99.90;;;;;;5050369;28;20032;-62
2021/07/15 07:02:57;;;;;;;;;;;19.10;99.90;;;;;;5049276;28;19933;-62
2021/07/15 07:05:46;;;;;;;;;;;20.90;99.90;;;;;;5052983;28;19947;-63
2021/07/15 07:08:34;;;;;;;;;;;24.00;99.90;;;;;;5055853;28;19996;-62
2021/07/15 07:11:24;;;;;;;;;;;24.10;98.50;;;;;;5051695;28;20531;-62
2021/07/15 07:17:27;;;;;;;;;;;20.10;99.90;;;;;;5039778;28;19979;-64
2021/07/15 07:20:16;;;;;;;;;;;19.90;99.90;;;;;;5051630;28;20353;-63
2021/07/15 07:23:31;;;;;;;;;;;20.10;99.90;;;;;;5044892;28;20011;-63
2021/07/15 07:26:20;;;;;;;;;;;19.70;99.90;;;;;;5052928;28;20023;-63
2021/07/15 07:29:10;;;;;;;;;;;19.40;99.90;;;;;;5053727;28;19928;-63
2021/07/15 07:31:58;;;;;;;;;;;18.80;99.90;;;;;;5037282;28;19925;-62
2021/07/15 07:34:48;;;;;;;;;;;18.80;99.90;;;;;;5054715;28;19925;-62
2021/07/15 07:37:36;;;;;;;;;;;18.80;99.90;;;;;;5050872;28;20416;-63
2021/07/15 07:40:24;;;;;;;;;;;18.40;99.90;;;;;;5053703;28;19966;-63
2021/07/15 07:43:13;;;;;;;;;;;18.50;99.90;;;;;;5051457;28;19971;-63
2021/07/15 07:46:02;;;;;;;;;;;18.80;99.90;;;;;;5039432;28;19964;-63
2021/07/15 07:48:55;;;;;;;;;;;19.60;99.90;;;;;;5052001;28;19932;-62
2021/07/15 07:51:44;;;;;;;;;;;20.00;99.90;;;;;;5045986;28;19932;-63
2021/07/15 07:54:32;;;;;;;;;;;20.10;99.90;;;;;;5047768;28;19935;-62
2021/07/15 07:57:21;;;;;;;;;;;20.00;99.90;;;;;;5053484;28;19928;-65
2021/07/15 08:00:11;;;;;;;;;;;19.70;99.90;;;;;;5044122;28;19982;-62
2021/07/15 08:03:03;;;;;;;;;;;18.90;99.90;;;;;;5053547;28;20071;-64
2021/07/15 08:05:52;;;;;;;;;;;18.80;99.90;;;;;;5053431;28;20368;-64
2021/07/15 08:08:40;;;;;;;;;;;19.10;99.90;;;;;;5052789;28;20344;-63
2021/07/15 08:11:29;;;;;;;;;;;19.10;99.90;;;;;;5053681;28;19925;-63
2021/07/15 08:14:23;;;;;;;;;;;19.40;99.90;;;;;;5054193;28;20388;-63
2021/07/15 08:17:12;;;;;;;;;;;19.60;99.90;;;;;;5045669;28;20284;-63
2021/07/15 08:20:03;;;;;;;;;;;19.80;99.90;;;;;;5050441;28;20392;-66
2021/07/15 08:22:51;;;;;;;;;;;19.70;99.90;;;;;;5042151;28;19971;-62
2021/07/15 08:25:43;;;;;;;;;;;19.90;99.90;;;;;;5042368;28;19952;-63
2021/07/15 08:28:32;;;;;;;;;;;19.30;99.90;;;;;;5052841;28;19963;-65
2021/07/15 08:31:25;;;;;;;;;;;19.30;99.90;;;;;;5037276;28;19925;-64
2021/07/15 08:34:14;;;;;;;;;;;19.20;99.90;;;;;;5043497;28;19925;-63
2021/07/15 08:37:03;;;;;;;;;;;19.00;99.90;;;;;;5053072;28;19979;-64
2021/07/15 08:39:52;;;;;;;;;;;20.10;99.90;;;;;;5053929;28;19928;-63
2021/07/15 08:42:40;;;;;;;;;;;20.40;99.90;;;;;;5036673;28;19947;-64
2021/07/15 08:45:31;;;;;;;;;;;19.60;99.90;;;;;;5045145;28;20293;-63
2021/07/15 08:48:20;;;;;;;;;;;20.10;99.90;;;;;;5050282;28;19925;-63
2021/07/15 08:51:09;;;;;;;;;;;20.20;99.90;;;;;;5046864;28;19929;-62
2021/07/15 08:53:59;;;;;;;;;;;20.50;99.90;;;;;;5037114;28;19925;-63
2021/07/15 08:57:13;;;;;;;;;;;20.30;99.90;;;;;;5041000;28;19932;-63
2021/07/15 09:00:01;;;;;;;;;;;19.90;99.90;;;;;;5043429;28;19932;-62
2021/07/15 09:02:50;;;;;;;;;;;19.50;99.90;;;;;;5051082;28;19925;-63
2021/07/15 09:05:39;;;;;;;;;;;19.20;99.90;;;;;;5055578;28;19925;-64
2021/07/15 09:08:30;;;;;;;;;;;19.10;99.90;;;;;;5049950;28;19948;-63
2021/07/15 09:11:20;;;;;;;;;;;19.00;99.90;;;;;;5052045;28;19925;-63
2021/07/15 09:17:27;;;;;;;;;;;18.60;99.90;;;;;;5046801;28;19925;-62
2021/07/15 09:20:17;;;;;;;;;;;18.40;99.90;;;;;;5050558;28;19932;-62
2021/07/15 09:23:06;;;;;;;;;;;18.50;99.90;;;;;;5051925;28;19932;-65
2021/07/15 09:25:57;;;;;;;;;;;18.70;99.90;;;;;;5051979;28;20011;-63
2021/07/15 09:28:47;;;;;;;;;;;18.70;99.90;;;;;;5038367;28;19924;-62
2021/07/15 09:31:50;;;;;;;;;;;19.30;99.90;;;;;;5046270;28;19925;-63
2021/07/15 09:34:43;;;;;;;;;;;19.40;99.90;;;;;;5051546;28;19928;-63
2021/07/15 09:37:33;;;;;;;;;;;19.40;99.90;;;;;;5051246;28;20640;-65
2021/07/15 09:40:36;;;;;;;;;;;19.60;99.90;;;;;;5048946;28;19925;-62
2021/07/15 09:43:26;;;;;;;;;;;19.90;99.90;;;;;;5051910;28;19932;-63
2021/07/15 09:46:17;;;;;;;;;;;19.70;99.90;;;;;;5044399;28;19932;-63
2021/07/15 09:49:08;;;;;;;;;;;19.90;99.90;;;;;;5052650;28;19925;-63
2021/07/15 09:51:58;;;;;;;;;;;20.10;99.90;;;;;;5052759;28;20035;-62
2021/07/15 09:54:46;;;;;;;;;;;20.30;99.90;;;;;;5051636;28;20345;-63
2021/07/15 09:57:35;;;;;;;;;;;20.10;99.90;;;;;;5068674;28;19984;-63
2021/07/15 10:00:49;;;;;;;;;;;20.10;99.90;;;;;;5046647;28;19931;-62
2021/07/15 10:03:42;;;;;;;;;;;19.60;99.90;;;;;;5052381;28;19925;-63
2021/07/15 10:06:42;;;;;;;;;;;19.50;99.90;;;;;;5054373;28;19999;-63
2021/07/15 10:09:37;;;;;;;;;;;19.40;99.90;;;;;;5056633;28;20055;-63
2021/07/15 10:12:27;;;;;;;;;;;19.30;99.90;;;;;;5056398;28;19925;-63
2021/07/15 10:15:16;;;;;;;;;;;19.50;99.90;;;;;;5034315;28;19948;-63
2021/07/15 10:18:04;;;;;;;;;;;19.40;99.90;;;;;;5055836;28;19947;-62
2021/07/15 10:20:56;;;;;;;;;;;19.40;99.90;;;;;;5046114;28;19935;-62
2021/07/15 10:23:47;;;;;;;;;;;19.40;99.90;;;;;;5053269;28;20012;-63
2021/07/15 10:26:52;;;;;;;;;;;19.50;99.90;;;;;;5055735;28;20374;-63
2021/07/15 10:29:42;;;;;;;;;;;19.50;99.90;;;;;;5055864;28;19932;-63
2021/07/15 10:32:31;;;;;;;;;;;19.60;99.90;;;;;;5056985;28;19988;-63
2021/07/15 10:35:45;;;;;;;;;;;20.00;99.90;;;;;;5056570;28;19924;-63
2021/07/15 10:38:37;;;;;;;;;;;19.90;99.90;;;;;;5054874;28;19928;-62
2021/07/15 10:41:26;;;;;;;;;;;19.90;99.90;;;;;;5055143;28;19931;-62
2021/07/15 10:44:15;;;;;;;;;;;20.20;99.90;;;;;;5030501;28;19925;-63
2021/07/15 10:47:04;;;;;;;;;;;20.00;99.90;;;;;;5045688;28;20055;-63
2021/07/15 10:49:53;;;;;;;;;;;20.20;99.90;;;;;;5054747;28;19952;-62
2021/07/15 10:52:44;;;;;;;;;;;20.40;99.90;;;;;;5055880;28;19924;-63
2021/07/15 10:55:34;;;;;;;;;;;20.50;99.90;;;;;;5055294;28;19936;-62
2021/07/15 10:58:42;;;;;;;;;;;20.00;99.90;;;;;;5035195;28;19925;-63
2021/07/15 11:01:40;;;;;;;;;;;20.00;99.90;;;;;;5030209;28;19924;-63
2021/07/15 11:05:26;;;;;;;;;;;19.60;99.90;;;;;;5055416;28;19964;-62
2021/07/15 11:08:15;;;;;;;;;;;19.30;99.90;;;;;;5033445;28;19931;-63
2021/07/15 11:11:05;;;;;;;;;;;19.20;99.90;;;;;;5052360;28;19964;-63
2021/07/15 11:13:53;;;;;;;;;;;19.10;99.90;;;;;;5036735;28;19925;-63
2021/07/15 11:16:52;;;;;;;;;;;19.10;99.90;;;;;;5029705;28;20305;-63
2021/07/15 11:20:08;;;;;;;;;;;19.00;99.90;;;;;;5035261;28;19976;-66
2021/07/15 11:22:57;;;;;;;;;;;19.10;99.90;;;;;;4999278;28;19925;-63
2021/07/15 11:25:47;;;;;;;;;;;19.20;99.90;;;;;;5028184;28;19929;-62
2021/07/15 11:28:49;;;;;;;;;;;19.30;99.90;;;;;;5033217;28;19929;-62
2021/07/15 11:31:40;;;;;;;;;;;19.20;99.90;;;;;;5023862;28;19932;-64
2021/07/15 11:34:43;;;;;;;;;;;19.10;99.90;;;;;;5029653;28;20006;-62
2021/07/15 11:37:38;;;;;;;;;;;19.20;99.90;;;;;;5041637;28;20372;-63
2021/07/15 11:40:41;;;;;;;;;;;19.10;99.90;;;;;;5034255;28;19965;-63
2021/07/15 11:43:32;;;;;;;;;;;19.10;99.90;;;;;;5049301;28;19924;-63
2021/07/15 11:46:22;;;;;;;;;;;19.10;99.90;;;;;;5047098;28;19925;-65
2021/07/15 11:49:19;;;;;;;;;;;19.10;99.90;;;;;;5054507;28;20065;-62
2021/07/15 11:52:14;;;;;;;;;;;19.10;99.90;;;;;;5061817;28;19928;-63
2021/07/15 11:55:11;;;;;;;;;;;19.20;99.90;;;;;;5053519;28;19956;-63
2021/07/15 11:58:00;;;;;;;;;;;19.30;99.90;;;;;;5055617;28;20300;-63
2021/07/15 12:00:48;;;;;;;;;;;19.40;99.90;;;;;;5046775;28;19964;-63
2021/07/15 12:03:56;;;;;;;;;;;19.40;99.90;;;;;;5053085;28;19925;-62
2021/07/15 12:06:45;;;;;;;;;;;19.50;99.90;;;;;;5044563;28;19929;-63
2021/07/15 12:09:34;;;;;;;;;;;19.70;99.90;;;;;;5057751;28;20027;-62
2021/07/15 12:12:22;;;;;;;;;;;20.20;99.90;;;;;;5039261;28;19924;-63
2021/07/15 12:15:18;;;;;;;;;;;20.40;99.90;;;;;;5046591;28;19948;-63
2021/07/15 12:18:10;;;;;;;;;;;20.60;99.90;;;;;;5051273;28;20046;-63
2021/07/15 12:21:02;;;;;;;;;;;20.60;99.90;;;;;;5053733;28;19932;-63
2021/07/15 12:23:51;;;;;;;;;;;20.70;99.90;;;;;;5046473;28;20011;-63
2021/07/15 12:26:40;;;;;;;;;;;20.70;99.90;;;;;;5054189;28;19951;-63
2021/07/15 12:29:28;;;;;;;;;;;20.70;99.90;;;;;;5050305;28;20261;-63
2021/07/15 12:32:18;;;;;;;;;;;20.90;99.90;;;;;;5048871;28;20008;-63
2021/07/15 12:35:13;;;;;;;;;;;20.80;99.90;;;;;;5040810;28;19976;-64
2021/07/15 12:38:17;;;;;;;;;;;20.90;99.90;;;;;;5020255;28;20901;-63
2021/07/15 12:41:07;;;;;;;;;;;20.90;99.90;;;;;;5049417;28;19936;-63
2021/07/15 12:43:59;;;;;;;;;;;21.00;99.90;;;;;;5049860;28;20389;-63
2021/07/15 12:46:49;;;;;;;;;;;21.00;99.90;;;;;;5038102;28;19931;-62
2021/07/15 12:49:37;;;;;;;;;;;20.60;99.90;;;;;;5026198;28;20384;-63
2021/07/15 12:52:28;;;;;;;;;;;20.60;99.90;;;;;;5047151;28;19925;-64
2021/07/15 12:55:27;;;;;;;;;;;20.90;99.90;;;;;;5066307;28;19928;-64
2021/07/15 12:58:17;;;;;;;;;;;20.90;99.90;;;;;;5048853;28;19924;-64
2021/07/15 13:01:30;;;;;;;;;;;21.00;99.90;;;;;;5037394;28;19987;-63
2021/07/15 13:04:19;;;;;;;;;;;21.00;99.90;;;;;;5044290;28;19925;-64
2021/07/15 13:07:09;;;;;;;;;;;21.10;99.90;;;;;;5040521;28;19925;-64
2021/07/15 13:10:09;;;;;;;;;;;21.00;99.90;;;;;;5038197;28;19924;-63
2021/07/15 13:16:38;;;;;;;;;;;20.60;99.90;;;;;;5032551;28;19925;-63
2021/07/15 13:19:27;;;;;;;;;;;20.70;99.90;;;;;;5046946;28;19947;-64
2021/07/15 13:22:41;;;;;;;;;;;20.50;99.90;;;;;;5042883;28;20072;-64
2021/07/15 13:25:29;;;;;;;;;;;20.40;99.90;;;;;;5016616;28;19925;-63
2021/07/15 13:28:20;;;;;;;;;;;20.10;99.90;;;;;;5031354;28;19936;-63
2021/07/15 13:31:13;;;;;;;;;;;19.80;99.90;;;;;;5026879;28;19940;-64
2021/07/15 13:34:29;;;;;;;;;;;19.70;99.90;;;;;;5048530;28;19998;-63
2021/07/15 13:37:26;;;;;;;;;;;19.70;99.90;;;;;;5053103;28;19929;-63
2021/07/15 13:40:16;;;;;;;;;;;19.60;99.90;;;;;;5052280;28;19977;-63
2021/07/15 13:43:06;;;;;;;;;;;19.70;99.90;;;;;;5072617;28;19933;-64
2021/07/15 13:45:56;;;;;;;;;;;19.70;99.90;;;;;;5045217;28;20281;-64
2021/07/15 13:48:45;;;;;;;;;;;19.80;99.90;;;;;;5041163;28;20383;-64
2021/07/15 13:51:34;;;;;;;;;;;19.90;99.90;;;;;;5050972;28;19932;-64
2021/07/15 13:54:22;;;;;;;;;;;19.90;99.90;;;;;;5050674;28;19924;-63
2021/07/15 13:57:12;;;;;;;;;;;19.90;99.90;;;;;;5058549;28;19951;-63
2021/07/15 14:00:05;;;;;;;;;;;20.10;99.90;;;;;;5053065;28;19947;-63
2021/07/15 14:03:01;;;;;;;;;;;20.10;99.90;;;;;;5055321;28;20434;-66
2021/07/15 14:05:52;;;;;;;;;;;20.40;99.90;;;;;;5054727;28;19932;-64
2021/07/15 14:08:40;;;;;;;;;;;20.90;99.90;;;;;;5055936;28;20411;-63
2021/07/15 14:11:30;;;;;;;;;;;21.00;99.90;;;;;;5049961;28;20030;-63
2021/07/15 14:17:31;;;;;;;;;;;21.00;99.90;;;;;;5052224;28;19964;-62
2021/07/15 14:20:21;;;;;;;;;;;21.70;99.90;;;;;;5058478;28;19925;-62
2021/07/15 14:23:10;;;;;;;;;;;22.00;99.90;;;;;;5039550;28;19931;-61
2021/07/15 14:26:00;;;;;;;;;;;21.40;99.90;;;;;;5049384;28;19925;-61
2021/07/15 14:28:49;;;;;;;;;;;21.40;99.90;;;;;;5053362;28;20023;-62
2021/07/15 14:32:03;;;;;;;;;;;21.20;99.90;;;;;;5049556;28;19936;-61
2021/07/15 14:34:53;;;;;;;;;;;21.90;99.90;;;;;;5053357;28;19947;-62
2021/07/15 14:37:43;;;;;;;;;;;22.10;99.90;;;;;;5053546;28;19939;-61
2021/07/15 14:40:32;;;;;;;;;;;21.40;99.90;;;;;;5055314;28;20082;-62
2021/07/15 14:43:21;;;;;;;;;;;21.60;99.90;;;;;;5054757;28;19933;-63
2021/07/15 14:46:09;;;;;;;;;;;21.40;99.90;;;;;;5038895;28;20078;-63
2021/07/15 14:48:57;;;;;;;;;;;21.40;99.90;;;;;;5053833;28;19932;-62
2021/07/15 14:51:46;;;;;;;;;;;21.20;99.90;;;;;;5049569;28;20171;-63
2021/07/15 14:54:35;;;;;;;;;;;20.90;99.90;;;;;;5048052;28;20021;-62
2021/07/15 14:57:24;;;;;;;;;;;20.80;99.90;;;;;;5052073;28;20446;-63
2021/07/15 15:00:14;;;;;;;;;;;20.70;99.90;;;;;;5041935;28;19931;-64
2021/07/15 15:03:02;;;;;;;;;;;20.50;99.90;;;;;;5051356;28;19932;-64
2021/07/15 15:05:51;;;;;;;;;;;20.60;99.90;;;;;;5052291;28;20002;-65
2021/07/15 15:08:40;;;;;;;;;;;20.30;99.90;;;;;;5051738;28;19966;-59
2021/07/15 15:11:29;;;;;;;;;;;20.50;99.90;;;;;;5038590;28;19925;-60
2021/07/15 15:14:43;;;;;;;;;;;20.80;99.90;;;;;;5049574;28;20699;-61
2021/07/15 15:17:32;;;;;;;;;;;20.90;99.90;;;;;;5047194;28;20274;-60
2021/07/15 15:20:24;;;;;;;;;;;21.20;99.90;;;;;;5052633;28;19925;-61
2021/07/15 15:23:13;;;;;;;;;;;21.80;99.90;;;;;;5053757;28;19925;-61
2021/07/15 15:26:02;;;;;;;;;;;22.10;99.90;;;;;;5050553;28;20058;-61
2021/07/15 15:28:51;;;;;;;;;;;22.20;99.90;;;;;;5051853;28;20335;-61
2021/07/15 15:31:40;;;;;;;;;;;22.00;99.90;;;;;;5047207;28;19935;-60
2021/07/15 15:34:28;;;;;;;;;;;21.50;99.90;;;;;;5052211;28;20327;-60
2021/07/15 15:37:16;;;;;;;;;;;21.60;99.90;;;;;;5052657;28;20058;-60
2021/07/15 15:40:06;;;;;;;;;;;21.60;99.90;;;;;;5055732;28;19925;-61
2021/07/15 15:42:54;;;;;;;;;;;21.20;99.90;;;;;;5053784;28;20062;-60
2021/07/15 15:45:44;;;;;;;;;;;20.80;99.90;;;;;;5040687;28;20062;-61
2021/07/15 15:48:33;;;;;;;;;;;20.20;99.90;;;;;;5040850;28;19935;-62
2021/07/15 15:51:21;;;;;;;;;;;19.60;99.90;;;;;;5058980;28;19924;-61
2021/07/15 15:54:14;;;;;;;;;;;19.40;99.90;;;;;;5063177;28;19924;-62
2021/07/15 15:57:04;;;;;;;;;;;19.10;99.90;;;;;;5054065;28;19967;-60
2021/07/15 15:59:52;;;;;;;;;;;18.90;99.90;;;;;;5043427;28;20062;-60
2021/07/15 16:02:43;;;;;;;;;;;18.80;99.90;;;;;;5049700;28;19924;-60
2021/07/15 16:05:31;;;;;;;;;;;18.80;99.90;;;;;;5050391;28;19992;-60
2021/07/15 16:08:20;;;;;;;;;;;18.70;99.90;;;;;;5054018;28;20388;-61
2021/07/15 16:11:09;;;;;;;;;;;18.80;99.90;;;;;;5052803;28;19933;-63
2021/07/15 16:14:25;;;;;;;;;;;18.90;99.90;;;;;;5044045;28;20030;-60
2021/07/15 16:17:18;;;;;;;;;;;19.20;99.90;;;;;;5046681;28;19925;-60
2021/07/15 16:23:46;;;;;;;;;;;19.20;99.90;;;;;;5050894;28;20303;-60
2021/07/15 16:26:34;;;;;;;;;;;18.90;99.90;;;;;;5053306;28;19928;-60
2021/07/15 16:29:23;;;;;;;;;;;18.90;99.90;;;;;;5051740;28;19933;-60
2021/07/15 16:32:12;;;;;;;;;;;18.90;99.90;;;;;;5045920;28;19925;-60
2021/07/15 16:35:00;;;;;;;;;;;18.90;99.90;;;;;;5043380;28;19932;-61
2021/07/15 16:37:50;;;;;;;;;;;19.00;99.90;;;;;;5032063;28;20296;-61
2021/07/15 16:40:38;;;;;;;;;;;19.00;99.90;;;;;;5032697;28;20024;-60
2021/07/15 16:43:26;;;;;;;;;;;19.10;99.90;;;;;;5032252;28;20364;-60
2021/07/15 16:46:18;;;;;;;;;;;19.10;99.90;;;;;;5025311;28;20067;-60
2021/07/15 16:49:11;;;;;;;;;;;19.00;99.90;;;;;;5038579;28;19928;-60
2021/07/15 16:52:00;;;;;;;;;;;19.00;99.90;;;;;;5012083;28;19925;-60
2021/07/15 16:54:50;;;;;;;;;;;19.10;99.90;;;;;;5030436;28;19932;-60
2021/07/15 16:57:41;;;;;;;;;;;19.10;99.90;;;;;;5031594;28;19925;-60